Time;durP1;ratioP1;P1;durP2;ratioP2;P2;SDS_P1;SDS_P2;PMS_P1;PMS_P2;Temp;Humidity;BMP_temperature;BMP_pressure;BME280_temperature;BME280_humidity;BME280_pressure;Samples;Min_cycle;Max_cycle;Signal;HPM_P1;HPM_P2
2023/12/30 00:00:18;;;;;;;9.90;3.47;;;3.60;99.90;;;;;;5033133;28;20247;-87
2023/12/30 00:02:48;;;;;;;8.30;3.28;;;3.60;99.90;;;;;;5032562;28;20197;-87
2023/12/30 00:05:16;;;;;;;11.85;2.90;;;3.70;99.90;;;;;;5032099;28;20652;-87
2023/12/30 00:07:44;;;;;;;16.17;3.33;;;3.60;99.90;;;;;;5031993;28;20553;-87
2023/12/30 00:10:12;;;;;;;9.63;2.83;;;3.50;99.90;;;;;;5031774;28;20237;-87
2023/12/30 00:12:40;;;;;;;10.95;3.30;;;3.60;99.90;;;;;;5031619;28;20773;-87
2023/12/30 00:15:08;;;;;;;15.38;3.97;;;3.60;99.90;;;;;;5032202;28;20174;-87
2023/12/30 00:17:35;;;;;;;21.15;3.65;;;3.60;99.90;;;;;;5031661;28;20189;-87
2023/12/30 00:20:03;;;;;;;16.70;4.22;;;3.60;99.90;;;;;;5048228;28;20204;-87
2023/12/30 00:22:31;;;;;;;15.30;3.03;;;3.60;99.90;;;;;;5047932;28;20186;-88
2023/12/30 00:24:59;;;;;;;24.00;3.40;;;3.60;99.90;;;;;;5031482;28;20194;-87
2023/12/30 00:27:26;;;;;;;9.65;3.08;;;3.60;99.90;;;;;;5047918;28;20265;-86
2023/12/30 00:29:54;;;;;;;11.98;3.40;;;3.60;99.90;;;;;;5031662;28;20264;-87
2023/12/30 00:32:21;;;;;;;9.10;2.30;;;3.60;99.90;;;;;;5031944;28;20185;-87
2023/12/30 00:34:49;;;;;;;10.27;3.00;;;3.50;99.90;;;;;;5032431;28;20190;-86
2023/12/30 00:37:20;;;;;;;15.40;3.30;;;3.50;99.90;;;;;;5031156;28;20277;-86
2023/12/30 00:39:48;;;;;;;9.95;2.90;;;3.60;99.90;;;;;;5032597;28;20174;-87
2023/12/30 00:42:15;;;;;;;14.57;3.33;;;3.60;99.90;;;;;;5047918;28;20193;-87
2023/12/30 00:44:43;;;;;;;12.82;3.33;;;3.50;99.90;;;;;;5014370;28;20220;-86
2023/12/30 00:47:13;;;;;;;12.38;3.17;;;3.60;99.90;;;;;;5030852;28;20656;-87
2023/12/30 00:49:41;;;;;;;18.23;3.13;;;3.60;99.90;;;;;;5031136;28;20264;-88
2023/12/30 00:52:09;;;;;;;12.75;2.72;;;3.50;99.90;;;;;;5031458;28;20182;-87
2023/12/30 00:54:36;;;;;;;12.25;2.72;;;3.50;99.90;;;;;;5031535;28;20256;-87
2023/12/30 00:57:16;;;;;;;16.20;3.38;;;3.50;99.90;;;;;;5032825;28;20194;-87
2023/12/30 00:59:44;;;;;;;12.77;3.17;;;3.60;99.90;;;;;;5048049;28;20782;-89
2023/12/30 01:02:11;;;;;;;14.35;3.30;;;3.60;99.90;;;;;;5030740;28;20275;-87
2023/12/30 01:04:39;;;;;;;14.15;3.50;;;3.60;99.90;;;;;;5030533;28;20197;-87
2023/12/30 01:07:07;;;;;;;14.23;3.50;;;3.70;99.90;;;;;;5030284;28;20656;-86
2023/12/30 01:09:35;;;;;;;18.25;4.10;;;3.60;99.90;;;;;;5031522;28;20201;-86
2023/12/30 01:12:03;;;;;;;13.20;3.65;;;3.70;99.90;;;;;;5030798;28;20254;-87
2023/12/30 01:14:30;;;;;;;19.70;3.92;;;3.70;99.90;;;;;;5031819;28;20182;-87
2023/12/30 01:16:58;;;;;;;12.82;3.15;;;3.70;99.90;;;;;;5030242;28;20198;-86
2023/12/30 01:19:25;;;;;;;11.98;3.20;;;3.60;99.90;;;;;;5031713;28;20189;-89
2023/12/30 01:21:53;;;;;;;16.75;3.33;;;3.50;99.90;;;;;;5046743;28;20194;-87
2023/12/30 01:24:20;;;;;;;8.05;2.35;;;3.50;99.90;;;;;;5031406;28;20679;-87
2023/12/30 01:26:48;;;;;;;11.38;2.63;;;3.60;99.90;;;;;;5029963;28;20276;-87
2023/12/30 01:29:16;;;;;;;10.43;2.13;;;3.50;99.90;;;;;;5060692;28;20213;-87
2023/12/30 01:31:43;;;;;;;11.55;2.30;;;3.50;99.90;;;;;;5066087;28;20198;-87
2023/12/30 01:34:10;;;;;;;12.27;2.78;;;3.50;99.90;;;;;;5049579;28;20181;-86
2023/12/30 01:36:38;;;;;;;14.73;2.85;;;3.50;99.90;;;;;;5049860;28;20593;-87
2023/12/30 01:39:06;;;;;;;11.10;2.13;;;3.50;99.90;;;;;;5066649;28;20943;-88
2023/12/30 01:41:34;;;;;;;10.80;2.05;;;3.50;99.90;;;;;;5050526;28;20671;-87
2023/12/30 01:44:02;;;;;;;10.48;2.53;;;3.50;99.90;;;;;;5049546;28;20200;-86
2023/12/30 01:46:30;;;;;;;13.20;2.80;;;3.40;99.90;;;;;;5064066;28;20272;-87
2023/12/30 01:48:58;;;;;;;10.25;2.47;;;3.50;99.90;;;;;;5046244;28;20218;-88
2023/12/30 01:51:26;;;;;;;13.88;2.67;;;3.50;99.90;;;;;;5029282;28;20218;-87
2023/12/30 01:53:57;;;;;;;17.50;3.08;;;3.50;99.90;;;;;;5030045;28;20186;-86
2023/12/30 01:56:25;;;;;;;9.93;2.40;;;3.50;99.90;;;;;;5046262;28;20189;-86
2023/12/30 01:58:53;;;;;;;17.77;3.15;;;3.50;99.90;;;;;;5029776;28;20660;-87
2023/12/30 02:01:22;;;;;;;16.55;3.05;;;3.50;99.90;;;;;;5029724;28;20245;-88
2023/12/30 02:03:50;;;;;;;15.13;3.50;;;3.50;99.90;;;;;;5030693;28;20185;-87
2023/12/30 02:06:18;;;;;;;19.00;3.47;;;3.50;99.90;;;;;;5045610;28;20198;-87
2023/12/30 02:08:47;;;;;;;13.43;2.75;;;3.50;99.90;;;;;;5045575;28;20197;-86
2023/12/30 02:11:15;;;;;;;20.58;3.65;;;3.60;99.90;;;;;;5045729;28;20200;-87
2023/12/30 02:13:44;;;;;;;21.27;3.10;;;3.60;99.90;;;;;;5030534;28;20228;-87
2023/12/30 02:16:11;;;;;;;19.02;3.15;;;3.50;99.90;;;;;;5029432;28;20190;-88
2023/12/30 02:18:39;;;;;;;22.73;4.32;;;3.50;99.90;;;;;;5046193;28;20240;-88
2023/12/30 02:21:07;;;;;;;18.27;3.75;;;3.50;99.90;;;;;;5029428;28;20660;-87
2023/12/30 02:23:35;;;;;;;16.35;4.03;;;3.50;99.90;;;;;;5028895;28;20186;-87
2023/12/30 02:26:05;;;;;;;21.38;3.05;;;3.50;99.90;;;;;;5030239;28;20186;-87
2023/12/30 02:28:33;;;;;;;17.80;3.28;;;3.50;99.90;;;;;;5045906;28;20571;-87
2023/12/30 02:31:03;;;;;;;14.02;3.15;;;3.50;99.90;;;;;;5045285;28;20267;-87
2023/12/30 02:33:31;;;;;;;20.13;3.10;;;3.50;99.90;;;;;;5045223;28;20190;-87
2023/12/30 02:35:58;;;;;;;15.77;2.63;;;3.40;99.90;;;;;;5028586;28;20190;-87
2023/12/30 02:38:26;;;;;;;9.57;2.70;;;3.40;99.90;;;;;;5045321;28;20194;-87
2023/12/30 02:40:54;;;;;;;13.20;2.67;;;3.40;99.90;;;;;;5029625;28;20201;-86
2023/12/30 02:43:24;;;;;;;15.55;2.72;;;3.40;99.90;;;;;;5044454;28;20552;-87
2023/12/30 02:45:51;;;;;;;11.38;2.53;;;3.40;99.90;;;;;;5054109;28;20284;-87
2023/12/30 02:48:19;;;;;;;11.05;2.10;;;3.30;99.90;;;;;;5052916;28;20740;-86
2023/12/30 02:50:46;;;;;;;14.98;2.60;;;3.30;99.90;;;;;;5053243;28;20201;-87
2023/12/30 02:53:14;;;;;;;13.18;1.98;;;3.30;99.90;;;;;;5053231;28;20193;-88
2023/12/30 02:55:41;;;;;;;15.30;2.10;;;3.30;99.90;;;;;;5052778;28;20185;-87
2023/12/30 02:58:09;;;;;;;11.32;1.95;;;3.30;99.90;;;;;;5069263;28;20199;-88
2023/12/30 03:00:36;;;;;;;8.18;1.50;;;3.30;99.90;;;;;;5053472;28;20486;-86
2023/12/30 03:03:04;;;;;;;12.88;2.10;;;3.20;99.90;;;;;;5052914;28;20193;-87
2023/12/30 03:05:32;;;;;;;10.85;1.83;;;3.20;99.90;;;;;;5053042;28;20250;-87
2023/12/30 03:08:00;;;;;;;12.32;2.20;;;3.30;99.90;;;;;;5052642;28;20193;-86
2023/12/30 03:10:27;;;;;;;8.52;2.13;;;3.20;99.90;;;;;;5052633;28;20214;-86
2023/12/30 03:12:55;;;;;;;11.00;2.28;;;3.20;99.90;;;;;;5053880;28;20227;-87
2023/12/30 03:15:22;;;;;;;8.15;2.33;;;3.20;99.90;;;;;;5052327;28;20185;-87
2023/12/30 03:17:50;;;;;;;9.85;2.65;;;3.20;99.90;;;;;;5052465;28;20190;-86
2023/12/30 03:20:18;;;;;;;16.05;3.35;;;3.20;99.90;;;;;;5052253;28;20544;-88
2023/12/30 03:22:45;;;;;;;11.60;2.80;;;3.20;99.90;;;;;;5052117;28;20276;-86
2023/12/30 03:25:12;;;;;;;13.88;3.38;;;3.20;99.90;;;;;;5051992;28;20239;-87
2023/12/30 03:27:40;;;;;;;11.32;3.15;;;3.20;99.90;;;;;;5051896;28;20189;-87
2023/12/30 03:30:08;;;;;;;12.40;2.97;;;3.20;99.90;;;;;;5053330;28;20229;-87
2023/12/30 03:32:36;;;;;;;8.52;2.80;;;3.20;99.90;;;;;;5035617;28;20663;-85
2023/12/30 03:35:04;;;;;;;12.68;2.70;;;3.20;99.90;;;;;;5052583;28;20244;-87
2023/12/30 03:37:31;;;;;;;13.27;2.97;;;3.20;99.90;;;;;;5051890;28;20223;-87
2023/12/30 03:39:59;;;;;;;14.00;2.97;;;3.20;99.90;;;;;;5051976;28;20247;-87
2023/12/30 03:42:27;;;;;;;15.05;2.85;;;3.10;99.90;;;;;;5053062;28;20205;-88
2023/12/30 03:44:54;;;;;;;13.48;3.03;;;3.20;99.90;;;;;;5052678;28;20192;-88
2023/12/30 03:47:22;;;;;;;10.55;2.47;;;3.20;99.90;;;;;;5053306;28;20197;-87
2023/12/30 03:49:49;;;;;;;12.32;3.17;;;3.20;99.90;;;;;;5069211;28;20300;-87
2023/12/30 03:52:17;;;;;;;13.23;2.97;;;3.20;99.90;;;;;;5035355;28;20288;-87
2023/12/30 03:54:44;;;;;;;9.73;3.08;;;3.10;99.90;;;;;;5031580;28;20220;-87
2023/12/30 03:57:14;;;;;;;11.88;3.47;;;3.20;99.90;;;;;;5032887;28;20182;-87
2023/12/30 03:59:41;;;;;;;13.00;3.67;;;3.20;99.90;;;;;;5048358;28;20189;-86
2023/12/30 04:02:09;;;;;;;11.80;3.40;;;3.20;99.90;;;;;;5048353;28;20231;-88
2023/12/30 04:04:36;;;;;;;15.82;3.22;;;3.20;99.90;;;;;;5031519;28;20193;-86
2023/12/30 04:07:04;;;;;;;7.95;2.65;;;3.20;99.90;;;;;;5047854;28;20193;-88
2023/12/30 04:09:32;;;;;;;7.93;2.45;;;3.20;99.90;;;;;;5031493;28;20700;-87
2023/12/30 04:11:59;;;;;;;8.25;2.42;;;3.20;99.90;;;;;;5047740;28;20221;-87
2023/12/30 04:14:26;;;;;;;7.00;1.88;;;3.20;99.90;;;;;;5047540;28;20224;-86
2023/12/30 04:16:54;;;;;;;4.65;1.73;;;3.10;99.90;;;;;;5031230;28;20201;-87
2023/12/30 04:19:24;;;;;;;4.53;1.40;;;3.10;99.90;;;;;;5031129;28;20256;-87
2023/12/30 04:21:52;;;;;;;4.22;1.60;;;3.10;99.90;;;;;;5032607;28;20183;-87
2023/12/30 04:24:21;;;;;;;7.32;2.03;;;3.10;99.90;;;;;;5032315;28;20674;-86
2023/12/30 04:26:50;;;;;;;4.45;1.80;;;3.00;99.90;;;;;;5032185;28;20281;-86
2023/12/30 04:29:17;;;;;;;4.78;1.63;;;3.00;99.90;;;;;;5032152;28;20265;-87
2023/12/30 04:31:45;;;;;;;5.57;1.63;;;3.00;99.90;;;;;;5032392;28;20182;-88
2023/12/30 04:34:13;;;;;;;9.55;1.90;;;3.00;99.90;;;;;;5030811;28;20661;-87
2023/12/30 04:36:40;;;;;;;8.30;2.03;;;3.00;99.90;;;;;;5032128;28;20186;-86
2023/12/30 04:39:08;;;;;;;4.78;2.25;;;3.00;99.90;;;;;;5030668;28;20190;-87
2023/12/30 04:41:36;;;;;;;4.30;1.92;;;3.10;99.90;;;;;;5047449;28;20747;-86
2023/12/30 04:44:03;;;;;;;11.07;3.00;;;3.10;99.90;;;;;;5032180;28;20189;-87
2023/12/30 04:46:31;;;;;;;6.88;2.33;;;3.10;99.90;;;;;;5014853;28;20194;-87
2023/12/30 04:49:02;;;;;;;7.38;2.90;;;3.10;99.90;;;;;;5030536;28;20671;-88
2023/12/30 04:51:32;;;;;;;7.10;2.75;;;3.10;99.90;;;;;;5030398;28;20293;-87
2023/12/30 04:54:01;;;;;;;9.35;2.70;;;3.10;99.90;;;;;;5030246;28;20205;-87
2023/12/30 04:56:28;;;;;;;9.80;2.38;;;3.10;99.90;;;;;;5013985;28;20197;-88
2023/12/30 04:58:57;;;;;;;8.10;2.58;;;3.10;99.90;;;;;;5031466;28;20182;-87
2023/12/30 05:01:24;;;;;;;8.98;2.50;;;3.10;99.90;;;;;;5046666;28;20204;-86
2023/12/30 05:03:53;;;;;;;10.25;3.03;;;3.10;99.90;;;;;;5030036;28;20189;-87
2023/12/30 05:06:21;;;;;;;9.40;3.08;;;3.10;99.90;;;;;;5029914;28;20220;-86
2023/12/30 05:08:53;;;;;;;10.63;3.22;;;3.20;99.90;;;;;;5031369;28;20652;-87
2023/12/30 05:11:23;;;;;;;8.80;3.60;;;3.10;99.90;;;;;;5031189;28;20660;-88
2023/12/30 05:13:51;;;;;;;11.95;3.45;;;3.10;99.90;;;;;;5031364;28;20173;-86
2023/12/30 05:16:19;;;;;;;13.43;3.88;;;3.10;99.90;;;;;;5030234;28;20198;-86
2023/12/30 05:18:46;;;;;;;9.68;3.90;;;3.10;99.90;;;;;;5046447;28;20256;-87
2023/12/30 05:21:17;;;;;;;6.90;3.05;;;3.10;99.90;;;;;;5031353;28;20940;-87
2023/12/30 05:23:45;;;;;;;8.23;3.70;;;3.20;99.90;;;;;;5045735;28;20190;-87
2023/12/30 05:26:13;;;;;;;12.23;3.58;;;3.20;99.90;;;;;;5033456;28;20193;-88
2023/12/30 05:28:40;;;;;;;12.63;4.00;;;3.20;99.90;;;;;;5042223;28;20668;-86
2023/12/30 05:31:08;;;;;;;11.60;3.08;;;3.20;99.90;;;;;;5040279;28;20198;-86
2023/12/30 05:33:36;;;;;;;7.45;3.50;;;3.20;99.90;;;;;;5030676;28;20209;-86
2023/12/30 05:36:04;;;;;;;12.05;3.50;;;3.20;99.90;;;;;;5045799;28;20186;-86
2023/12/30 05:38:31;;;;;;;6.78;2.78;;;3.20;99.90;;;;;;5030497;28;20193;-85
2023/12/30 05:40:59;;;;;;;8.07;3.20;;;3.20;99.90;;;;;;5031232;28;20275;-86
2023/12/30 05:43:26;;;;;;;7.10;2.90;;;3.20;99.90;;;;;;5049135;28;20247;-86
2023/12/30 05:45:54;;;;;;;11.90;3.60;;;3.20;99.90;;;;;;5046499;28;20185;-87
2023/12/30 05:48:22;;;;;;;9.95;4.03;;;3.20;99.90;;;;;;5021042;28;20682;-85
2023/12/30 05:50:49;;;;;;;9.43;3.00;;;3.20;99.90;;;;;;5034240;28;20297;-87
2023/12/30 05:53:18;;;;;;;16.45;3.45;;;3.20;99.90;;;;;;5040145;28;20260;-87
2023/12/30 05:55:45;;;;;;;11.50;3.00;;;3.20;99.90;;;;;;5052141;28;20186;-85
2023/12/30 05:58:13;;;;;;;9.43;3.08;;;3.20;99.90;;;;;;5039699;28;20204;-88
2023/12/30 06:00:40;;;;;;;9.13;3.88;;;3.20;99.90;;;;;;5048137;28;20208;-87
2023/12/30 06:03:08;;;;;;;15.98;4.00;;;3.20;99.90;;;;;;5029773;28;20264;-86
2023/12/30 06:05:35;;;;;;;10.27;3.60;;;3.20;99.90;;;;;;5031651;28;20192;-86
2023/12/30 06:08:04;;;;;;;8.38;3.47;;;3.20;99.90;;;;;;5048644;28;20266;-87
2023/12/30 06:10:31;;;;;;;7.88;3.38;;;3.30;99.90;;;;;;5034732;28;20281;-86
2023/12/30 06:12:59;;;;;;;10.02;3.33;;;3.30;99.90;;;;;;5028559;28;20852;-87
2023/12/30 06:15:27;;;;;;;12.45;3.53;;;3.30;99.90;;;;;;5031871;28;20813;-86
2023/12/30 06:17:55;;;;;;;11.65;2.80;;;3.20;99.90;;;;;;5044228;28;20173;-86
2023/12/30 06:20:23;;;;;;;9.07;3.28;;;3.20;99.90;;;;;;5017849;28;20189;-86
2023/12/30 06:22:50;;;;;;;9.40;3.70;;;3.20;99.90;;;;;;5030117;28;20240;-86
2023/12/30 06:25:18;;;;;;;8.43;3.15;;;3.20;99.90;;;;;;5036005;28;20671;-86
2023/12/30 06:27:45;;;;;;;8.43;2.53;;;3.30;99.90;;;;;;5035917;28;20197;-87
2023/12/30 06:30:13;;;;;;;10.32;3.60;;;3.30;99.90;;;;;;5041185;28;20247;-87
2023/12/30 06:32:41;;;;;;;7.85;3.03;;;3.30;99.90;;;;;;5058535;28;20221;-86
2023/12/30 06:35:09;;;;;;;7.75;3.05;;;3.30;99.90;;;;;;5030186;28;20228;-86
2023/12/30 06:37:37;;;;;;;9.52;3.00;;;3.30;99.90;;;;;;5048113;28;20185;-86
2023/12/30 06:40:05;;;;;;;4.18;2.53;;;3.20;99.90;;;;;;5049229;28;20181;-87
2023/12/30 06:42:32;;;;;;;13.60;2.80;;;3.30;99.90;;;;;;5049086;28;20723;-86
2023/12/30 06:45:00;;;;;;;4.10;2.40;;;3.20;99.90;;;;;;5049885;28;20204;-86
2023/12/30 06:47:27;;;;;;;13.27;2.95;;;3.30;99.90;;;;;;5048594;28;20185;-87
2023/12/30 06:49:55;;;;;;;8.70;2.70;;;3.20;99.90;;;;;;5048870;28;20185;-87
2023/12/30 06:52:23;;;;;;;8.07;2.33;;;3.30;99.90;;;;;;5047751;28;20197;-87
2023/12/30 06:54:51;;;;;;;7.63;2.67;;;3.30;99.90;;;;;;5047619;28;20189;-86
2023/12/30 06:57:32;;;;;;;7.05;2.53;;;3.20;99.90;;;;;;5048906;28;20161;-87
2023/12/30 07:00:00;;;;;;;7.90;2.55;;;3.20;99.90;;;;;;5049353;28;20184;-86
2023/12/30 07:02:27;;;;;;;7.90;2.80;;;3.30;99.90;;;;;;5049382;28;20189;-86
2023/12/30 07:04:55;;;;;;;7.53;2.63;;;3.20;99.90;;;;;;5049037;28;20195;-86
2023/12/30 07:07:23;;;;;;;12.85;3.03;;;3.30;99.90;;;;;;5047985;28;20187;-86
2023/12/30 07:09:50;;;;;;;6.38;2.70;;;3.20;99.90;;;;;;5047393;28;20185;-84
2023/12/30 07:12:18;;;;;;;5.75;2.30;;;3.20;99.90;;;;;;5048819;28;20227;-86
2023/12/30 07:14:45;;;;;;;10.43;3.10;;;3.20;99.90;;;;;;5047682;28;20679;-85
2023/12/30 07:17:15;;;;;;;9.23;2.95;;;3.30;99.90;;;;;;5047862;28;20182;-85
2023/12/30 07:19:43;;;;;;;9.63;2.72;;;3.30;99.90;;;;;;5048661;28;20231;-86
2023/12/30 07:22:12;;;;;;;9.32;3.17;;;3.30;99.90;;;;;;5047209;28;20193;-86
2023/12/30 07:24:39;;;;;;;11.90;2.67;;;3.30;99.90;;;;;;5047227;28;20848;-85
2023/12/30 07:27:07;;;;;;;3.95;2.28;;;3.20;99.90;;;;;;5031086;28;20193;-86
2023/12/30 07:29:35;;;;;;;14.25;3.10;;;3.20;99.90;;;;;;5039445;28;20201;-86
2023/12/30 07:32:03;;;;;;;13.48;3.10;;;3.20;99.90;;;;;;5050772;28;20206;-87
2023/12/30 07:34:31;;;;;;;10.80;3.15;;;3.20;99.90;;;;;;5050920;28;20185;-86
2023/12/30 07:37:01;;;;;;;7.38;2.45;;;3.20;99.90;;;;;;5041889;28;20247;-86
2023/12/30 07:39:29;;;;;;;7.03;2.33;;;3.20;99.90;;;;;;5040101;28;20185;-84
2023/12/30 07:41:56;;;;;;;9.73;2.53;;;3.20;99.90;;;;;;5065849;28;20659;-85
2023/12/30 07:44:24;;;;;;;5.25;1.58;;;3.20;99.90;;;;;;5040118;28;20202;-86
2023/12/30 07:46:51;;;;;;;6.00;2.70;;;3.20;99.90;;;;;;5043730;28;20204;-86
2023/12/30 07:49:19;;;;;;;11.27;2.42;;;3.20;99.90;;;;;;5046711;28;20189;-87
2023/12/30 07:51:46;;;;;;;11.05;2.80;;;3.20;99.90;;;;;;5050626;28;20236;-84
2023/12/30 07:54:14;;;;;;;5.88;2.15;;;3.20;99.90;;;;;;5067416;28;20188;-85
2023/12/30 07:56:41;;;;;;;7.05;2.15;;;3.20;99.90;;;;;;5050684;28;20185;-85
2023/12/30 07:59:11;;;;;;;6.85;2.22;;;3.20;99.90;;;;;;5050673;28;20196;-85
2023/12/30 08:01:45;;;;;;;7.82;2.20;;;3.20;99.90;;;;;;5039419;28;20256;-87
2023/12/30 08:04:13;;;;;;;8.93;2.53;;;3.20;99.90;;;;;;5050674;28;20175;-84
2023/12/30 08:06:41;;;;;;;8.30;2.35;;;3.20;99.90;;;;;;5051887;28;20293;-86
2023/12/30 08:09:09;;;;;;;8.13;2.50;;;3.30;99.90;;;;;;5051991;28;20201;-84
2023/12/30 08:11:37;;;;;;;6.60;2.13;;;3.30;99.90;;;;;;5046473;28;20278;-86
2023/12/30 08:14:24;;;;;;;8.60;2.80;;;3.20;99.90;;;;;;5051510;28;20181;-84
2023/12/30 08:16:52;;;;;;;3.30;1.90;;;3.30;99.90;;;;;;5050238;28;20280;-84
2023/12/30 08:19:19;;;;;;;7.82;1.67;;;3.30;99.90;;;;;;5051693;28;20628;-86
2023/12/30 08:21:46;;;;;;;2.65;1.45;;;3.20;99.90;;;;;;5051797;28;20216;-85
2023/12/30 08:24:16;;;;;;;6.45;1.50;;;3.20;99.90;;;;;;5051182;28;20677;-87
2023/12/30 08:26:44;;;;;;;6.28;1.60;;;3.20;99.90;;;;;;5049972;28;20193;-85
2023/12/30 08:29:13;;;;;;;10.25;2.20;;;3.20;99.90;;;;;;5035508;28;20197;-86
2023/12/30 08:31:47;;;;;;;3.88;1.65;;;3.20;99.90;;;;;;5031933;28;20213;-86
2023/12/30 08:34:15;;;;;;;3.17;1.52;;;3.20;99.90;;;;;;5063447;28;20731;-86
2023/12/30 08:36:44;;;;;;;6.13;2.00;;;3.20;99.90;;;;;;5042360;28;20200;-86
2023/12/30 08:39:12;;;;;;;4.85;1.67;;;3.20;99.90;;;;;;5043657;28;20193;-86
2023/12/30 08:41:40;;;;;;;2.78;1.48;;;3.20;99.90;;;;;;5031333;28;20210;-85
2023/12/30 08:44:08;;;;;;;11.52;1.58;;;3.20;99.90;;;;;;5047387;28;20193;-86
2023/12/30 08:46:36;;;;;;;8.55;2.40;;;3.20;99.90;;;;;;5051084;28;20185;-85
2023/12/30 08:49:04;;;;;;;8.35;2.63;;;3.30;99.90;;;;;;5049517;28;20209;-86
2023/12/30 08:51:36;;;;;;;5.53;2.40;;;3.30;99.90;;;;;;5051045;28;20197;-85
2023/12/30 08:54:04;;;;;;;7.45;2.47;;;3.20;99.90;;;;;;5051086;28;20193;-87
2023/12/30 08:56:34;;;;;;;6.68;2.28;;;3.30;99.90;;;;;;5051086;28;20656;-85
2023/12/30 08:59:02;;;;;;;6.22;1.60;;;3.30;99.90;;;;;;5049591;28;20185;-88
2023/12/30 09:01:30;;;;;;;3.55;1.75;;;3.30;99.90;;;;;;5047141;28;20193;-87
2023/12/30 09:03:59;;;;;;;11.68;2.17;;;3.30;99.90;;;;;;5065926;28;20276;-87
2023/12/30 09:06:27;;;;;;;10.88;2.63;;;3.30;99.90;;;;;;5046672;28;20739;-84
2023/12/30 09:08:56;;;;;;;7.93;2.40;;;3.20;99.90;;;;;;5030009;28;20224;-86
2023/12/30 09:11:23;;;;;;;4.72;2.00;;;3.20;99.90;;;;;;5044644;28;20216;-85
2023/12/30 09:13:54;;;;;;;8.05;1.88;;;3.30;99.90;;;;;;5013101;28;20201;-87
2023/12/30 09:16:21;;;;;;;5.50;1.90;;;3.30;99.90;;;;;;5029462;28;20182;-87
2023/12/30 09:18:49;;;;;;;10.32;2.72;;;3.30;99.90;;;;;;5029326;28;20214;-87
2023/12/30 09:21:17;;;;;;;12.80;2.55;;;3.30;99.90;;;;;;5045873;28;20276;-88
2023/12/30 09:23:45;;;;;;;10.10;2.20;;;3.20;99.90;;;;;;5030505;28;20235;-86
2023/12/30 09:26:15;;;;;;;9.07;2.30;;;3.20;99.90;;;;;;5033347;28;20922;-88
2023/12/30 09:28:43;;;;;;;6.97;1.90;;;3.30;99.90;;;;;;5049107;28;20189;-86
2023/12/30 09:31:11;;;;;;;7.47;2.30;;;3.20;99.90;;;;;;5065689;28;20320;-86
2023/12/30 09:33:38;;;;;;;9.70;2.20;;;3.30;99.90;;;;;;5065687;28;20754;-87
2023/12/30 09:36:07;;;;;;;9.23;2.22;;;3.30;99.90;;;;;;5049059;28;20185;-87
2023/12/30 09:38:35;;;;;;;9.30;2.40;;;3.30;99.90;;;;;;5065544;28;20181;-86
2023/12/30 09:41:02;;;;;;;8.85;2.50;;;3.30;99.90;;;;;;5048862;28;20205;-87
2023/12/30 09:43:30;;;;;;;9.32;2.70;;;3.30;99.90;;;;;;5049176;28;20197;-87
2023/12/30 09:45:58;;;;;;;9.82;2.28;;;3.30;99.90;;;;;;5050739;28;20193;-86
2023/12/30 09:48:29;;;;;;;9.82;1.60;;;3.30;99.90;;;;;;5050291;28;20181;-86
2023/12/30 09:50:57;;;;;;;8.32;2.30;;;3.30;99.90;;;;;;5049373;28;20236;-87
2023/12/30 09:53:25;;;;;;;9.50;2.45;;;3.20;99.90;;;;;;5050208;28;20174;-87
2023/12/30 09:55:53;;;;;;;7.43;2.25;;;3.30;99.90;;;;;;5049975;28;20223;-87
2023/12/30 09:58:22;;;;;;;5.30;1.70;;;3.20;99.90;;;;;;5048896;28;20255;-88
2023/12/30 10:00:50;;;;;;;6.05;1.77;;;3.20;99.90;;;;;;5048604;28;20189;-86
2023/12/30 10:03:18;;;;;;;5.75;1.70;;;3.20;99.90;;;;;;5049900;28;20189;-87
2023/12/30 10:05:47;;;;;;;8.32;2.50;;;3.20;99.90;;;;;;5049754;28;20186;-87
2023/12/30 10:08:15;;;;;;;6.93;1.60;;;3.20;99.90;;;;;;5048834;28;20189;-86
2023/12/30 10:10:49;;;;;;;6.18;1.70;;;3.20;99.90;;;;;;5048523;28;20189;-86
2023/12/30 10:13:21;;;;;;;3.53;1.80;;;3.20;99.90;;;;;;5049910;28;20224;-86
2023/12/30 10:15:49;;;;;;;11.55;2.30;;;3.30;99.90;;;;;;5031821;28;20177;-86
2023/12/30 10:18:17;;;;;;;7.57;1.80;;;3.30;99.90;;;;;;5048574;28;20208;-87
2023/12/30 10:20:47;;;;;;;7.93;2.25;;;3.20;99.90;;;;;;5048548;28;20539;-87
2023/12/30 10:23:15;;;;;;;8.20;2.63;;;3.20;99.90;;;;;;5048294;28;20212;-86
2023/12/30 10:25:42;;;;;;;9.68;3.05;;;3.20;99.90;;;;;;5048121;28;20190;-86
2023/12/30 10:28:10;;;;;;;8.40;2.83;;;3.20;99.90;;;;;;5049712;28;20647;-86
2023/12/30 10:30:38;;;;;;;6.13;2.40;;;3.20;99.90;;;;;;5048045;28;20288;-87
2023/12/30 10:33:10;;;;;;;7.18;2.00;;;3.10;99.90;;;;;;5047980;28;20671;-85
2023/12/30 10:35:40;;;;;;;11.45;2.30;;;3.10;99.90;;;;;;5048147;28;20173;-86
2023/12/30 10:38:08;;;;;;;9.13;2.45;;;3.10;99.90;;;;;;5049379;28;20185;-86
2023/12/30 10:40:38;;;;;;;7.07;2.05;;;3.10;99.90;;;;;;5064961;28;20193;-87
2023/12/30 10:43:06;;;;;;;4.10;1.80;;;3.10;99.90;;;;;;5049595;28;20194;-87
2023/12/30 10:45:34;;;;;;;7.60;2.25;;;3.10;99.90;;;;;;5049713;28;20181;-86
2023/12/30 10:48:05;;;;;;;8.93;2.10;;;3.10;99.90;;;;;;5049448;28;20243;-86
2023/12/30 10:50:34;;;;;;;12.95;2.50;;;3.10;99.90;;;;;;5065040;28;20242;-87
2023/12/30 10:53:08;;;;;;;10.52;2.10;;;3.10;99.90;;;;;;5047859;28;20560;-86
2023/12/30 10:55:40;;;;;;;10.15;2.28;;;3.00;99.90;;;;;;5049565;28;20170;-86
2023/12/30 10:58:19;;;;;;;8.10;2.10;;;3.00;99.90;;;;;;5049419;28;20180;-86
2023/12/30 11:00:52;;;;;;;9.02;2.00;;;3.10;99.90;;;;;;5047525;28;20481;-85
2023/12/30 11:03:21;;;;;;;9.02;2.10;;;3.00;99.90;;;;;;5050367;28;20699;-87
2023/12/30 11:06:15;;;;;;;9.32;2.50;;;3.00;99.90;;;;;;5053260;28;20276;-86
2023/12/30 11:08:44;;;;;;;8.05;2.28;;;3.00;99.90;;;;;;5053344;28;20177;-87
2023/12/30 11:11:14;;;;;;;7.25;2.97;;;3.00;99.90;;;;;;5051435;28;20598;-86
2023/12/30 11:13:42;;;;;;;9.85;2.50;;;3.00;99.90;;;;;;5053064;28;20212;-89
2023/12/30 11:16:16;;;;;;;7.30;2.15;;;3.00;99.90;;;;;;5051470;28;20590;-88
2023/12/30 11:18:55;;;;;;;12.13;2.30;;;3.00;99.90;;;;;;5053187;28;20173;-86
2023/12/30 11:21:46;;;;;;;13.32;2.38;;;3.00;99.90;;;;;;5052969;28;20256;-86
2023/12/30 11:24:17;;;;;;;11.00;2.80;;;3.00;99.90;;;;;;5052818;28;20219;-87
2023/12/30 11:26:45;;;;;;;11.32;2.20;;;3.10;99.90;;;;;;5051569;28;20301;-86
2023/12/30 11:29:17;;;;;;;6.25;2.17;;;3.10;99.90;;;;;;5051403;28;20652;-86
2023/12/30 11:31:46;;;;;;;10.38;2.33;;;3.00;99.90;;;;;;5052992;28;20296;-87
2023/12/30 11:34:15;;;;;;;11.48;2.55;;;3.00;99.90;;;;;;5068955;28;20709;-86
2023/12/30 11:36:47;;;;;;;9.10;2.22;;;3.10;99.90;;;;;;5051667;28;20193;-86
2023/12/30 11:39:30;;;;;;;8.35;2.20;;;3.10;99.90;;;;;;5052671;28;20671;-86
2023/12/30 11:42:03;;;;;;;12.07;2.65;;;3.10;99.90;;;;;;5051539;28;20251;-87
2023/12/30 11:44:31;;;;;;;7.68;2.15;;;3.20;99.90;;;;;;5051652;28;20196;-86
2023/12/30 11:46:59;;;;;;;7.95;2.08;;;3.20;99.90;;;;;;5068040;28;20193;-87
2023/12/30 11:49:26;;;;;;;9.27;2.05;;;3.10;99.90;;;;;;5052713;28;20189;-86
2023/12/30 11:52:02;;;;;;;15.00;2.20;;;3.20;99.90;;;;;;5053107;28;20205;-87
2023/12/30 11:54:32;;;;;;;11.30;2.10;;;3.20;99.90;;;;;;5068619;28;20177;-88
2023/12/30 11:57:00;;;;;;;5.20;1.88;;;3.20;99.90;;;;;;5051195;28;20697;-87
2023/12/30 11:59:29;;;;;;;11.95;2.25;;;3.20;99.90;;;;;;5067882;28;20735;-86
2023/12/30 12:02:13;;;;;;;6.20;1.70;;;3.20;99.90;;;;;;5051615;28;20189;-86
2023/12/30 12:04:42;;;;;;;5.25;1.67;;;3.20;99.90;;;;;;5067553;28;20177;-87
2023/12/30 12:07:11;;;;;;;6.13;1.48;;;3.20;99.90;;;;;;5067628;28;20197;-88
2023/12/30 12:09:40;;;;;;;7.25;1.67;;;3.20;99.90;;;;;;5052719;28;20737;-88
2023/12/30 12:12:10;;;;;;;9.02;1.98;;;3.10;99.90;;;;;;5068134;28;20228;-88
2023/12/30 12:14:38;;;;;;;6.07;1.52;;;3.10;99.90;;;;;;5051969;28;20185;-87
2023/12/30 12:17:08;;;;;;;5.60;1.67;;;3.10;99.90;;;;;;5052200;28;20177;-86
2023/12/30 12:19:39;;;;;;;7.13;1.65;;;3.10;99.90;;;;;;5052424;28;20181;-87
2023/12/30 12:22:07;;;;;;;9.43;2.13;;;3.00;99.90;;;;;;5050927;28;20178;-88
2023/12/30 12:24:34;;;;;;;7.25;1.60;;;3.10;99.90;;;;;;5052017;28;20217;-87
2023/12/30 12:27:03;;;;;;;6.95;1.80;;;3.10;99.90;;;;;;5050689;28;20281;-88
2023/12/30 12:29:30;;;;;;;9.27;2.10;;;3.10;99.90;;;;;;5052042;28;20193;-86
2023/12/30 12:31:58;;;;;;;10.48;2.22;;;3.00;99.90;;;;;;5051308;28;20221;-87
2023/12/30 12:34:25;;;;;;;6.80;1.90;;;3.00;99.90;;;;;;5051012;28;20548;-86
2023/12/30 12:36:54;;;;;;;6.82;1.80;;;3.00;99.90;;;;;;5067457;28;20857;-87
2023/12/30 12:39:21;;;;;;;6.90;1.98;;;3.00;99.90;;;;;;5067322;28;20185;-87
2023/12/30 12:41:49;;;;;;;9.02;2.13;;;3.00;99.90;;;;;;5050588;28;20197;-88
2023/12/30 12:44:16;;;;;;;8.98;1.98;;;3.00;99.90;;;;;;5050668;28;20188;-86
2023/12/30 12:46:44;;;;;;;7.65;2.40;;;3.00;99.90;;;;;;5050628;28;20208;-86
2023/12/30 12:49:11;;;;;;;7.40;1.83;;;3.00;99.90;;;;;;5050429;28;20192;-86
2023/12/30 12:51:39;;;;;;;11.77;2.10;;;3.00;99.90;;;;;;5051720;28;20653;-87
2023/12/30 12:54:07;;;;;;;8.00;1.95;;;3.00;99.90;;;;;;5051916;28;20203;-87
2023/12/30 12:56:34;;;;;;;8.55;2.13;;;2.90;99.90;;;;;;5067428;28;20594;-87
2023/12/30 12:59:02;;;;;;;9.63;1.42;;;2.90;99.90;;;;;;5050707;28;20193;-86